Time;durP1;ratioP1;P1;durP2;ratioP2;P2;SDS_P1;SDS_P2;PMS_P1;PMS_P2;Temp;Humidity;BMP_temperature;BMP_pressure;BME280_temperature;BME280_humidity;BME280_pressure;Samples;Min_cycle;Max_cycle;Signal;HPM_P1;HPM_P2
2024/03/09 00:00:35;;;;;;;0.20;0.20;;;;;;;4.83;79.75;101810.63;4917770;29;20039;-86
2024/03/09 00:03:01;;;;;;;0.20;0.20;;;;;;;4.88;79.89;101816.53;4917586;29;20487;-86
2024/03/09 00:05:27;;;;;;;0.20;0.20;;;;;;;4.84;79.42;101796.06;4932895;29;20038;-85
2024/03/09 00:07:54;;;;;;;0.20;0.20;;;;;;;4.75;79.58;101807.25;4917434;29;20091;-85
2024/03/09 00:10:23;;;;;;;0.20;0.20;;;;;;;4.73;79.96;101808.97;4917061;29;20034;-86
2024/03/09 00:12:49;;;;;;;0.20;0.20;;;;;;;4.59;80.38;101810.75;4901397;29;20032;-86
2024/03/09 00:15:15;;;;;;;0.20;0.20;;;;;;;4.49;80.80;101792.00;4916990;29;20426;-85
2024/03/09 00:17:47;;;;;;;0.20;0.20;;;;;;;4.57;80.96;101809.91;4916703;29;20027;-85
2024/03/09 00:20:15;;;;;;;0.20;0.20;;;;;;;4.54;81.10;101802.25;4917634;29;20031;-85
2024/03/09 00:22:45;;;;;;;0.20;0.20;;;;;;;4.56;80.73;101803.06;4917002;29;20462;-85
2024/03/09 00:25:10;;;;;;;0.20;0.20;;;;;;;4.53;80.90;101803.09;4932623;29;20043;-86
2024/03/09 00:27:38;;;;;;;0.20;0.20;;;;;;;4.34;80.77;101768.19;4900947;29;20063;-85
2024/03/09 00:30:13;;;;;;;0.20;0.20;;;;;;;4.60;80.60;101802.19;4932566;29;20035;-85
2024/03/09 00:32:39;;;;;;;0.20;0.20;;;;;;;4.59;80.45;101800.47;4917054;29;20043;-85
2024/03/09 00:35:06;;;;;;;0.20;0.20;;;;;;;4.44;80.51;101774.97;4915800;29;20137;-85
2024/03/09 00:37:32;;;;;;;0.20;0.20;;;;;;;4.54;80.27;101794.56;4916847;29;20487;-85
2024/03/09 00:39:57;;;;;;;0.20;0.20;;;;;;;4.40;80.03;101789.47;4916625;29;20039;-85
2024/03/09 00:42:25;;;;;;;0.20;0.20;;;;;;;4.42;80.18;101797.16;4916390;29;20031;-85
2024/03/09 00:44:51;;;;;;;0.20;0.20;;;;;;;4.40;80.43;101797.16;4932303;29;20031;-85
2024/03/09 00:47:17;;;;;;;0.20;0.20;;;;;;;4.49;79.97;101793.72;4916177;29;20118;-85
2024/03/09 00:49:43;;;;;;;0.20;0.20;;;;;;;4.42;79.92;101794.59;4932027;29;20195;-85
2024/03/09 00:52:10;;;;;;;0.20;0.20;;;;;;;4.41;79.88;101785.19;4916439;29;20028;-85
2024/03/09 00:54:37;;;;;;;0.20;0.20;;;;;;;4.30;79.70;101772.44;4916329;29;20533;-85
2024/03/09 00:57:03;;;;;;;0.20;0.20;;;;;;;4.35;79.77;101777.56;4916332;29;20101;-85
2024/03/09 00:59:30;;;;;;;0.20;0.20;;;;;;;4.24;80.04;101765.66;4916834;29;20110;-86
2024/03/09 01:01:56;;;;;;;0.20;0.20;;;;;;;4.09;79.71;101744.38;4931894;29;20430;-85
2024/03/09 01:04:23;;;;;;;0.20;0.20;;;;;;;4.19;80.06;101775.06;4932145;29;20086;-85
2024/03/09 01:06:49;;;;;;;0.20;0.20;;;;;;;4.22;80.11;101780.16;4916606;29;20115;-86
2024/03/09 01:09:15;;;;;;;0.20;0.20;;;;;;;4.17;80.48;101779.34;4900642;29;20558;-85
2024/03/09 01:11:40;;;;;;;0.20;0.20;;;;;;;4.19;80.02;101780.19;4916124;29;20406;-85
2024/03/09 01:14:07;;;;;;;0.20;0.20;;;;;;;4.11;80.25;101765.69;4916049;29;20020;-85
2024/03/09 01:16:32;;;;;;;0.20;0.20;;;;;;;4.06;80.27;101760.63;4900264;29;20390;-84
2024/03/09 01:18:58;;;;;;;0.20;0.20;;;;;;;4.12;80.13;101777.66;4915850;29;20044;-86
2024/03/09 01:21:24;;;;;;;0.20;0.20;;;;;;;3.95;80.52;101764.94;4916252;29;20454;-85
2024/03/09 01:23:49;;;;;;;0.20;0.20;;;;;;;3.94;81.04;101776.88;4916151;29;20118;-85
2024/03/09 01:26:15;;;;;;;0.20;0.20;;;;;;;3.92;80.54;101770.03;4915910;29;20067;-85
2024/03/09 01:28:41;;;;;;;0.20;0.20;;;;;;;3.94;80.70;101778.59;4916414;29;20039;-85
2024/03/09 01:31:11;;;;;;;0.20;0.20;;;;;;;3.91;81.04;101784.53;4931672;29;20064;-86
2024/03/09 01:33:38;;;;;;;0.20;0.20;;;;;;;3.82;81.01;101770.91;4916876;29;20056;-85
2024/03/09 01:36:04;;;;;;;0.20;0.20;;;;;;;3.68;80.80;101760.72;4916194;29;20023;-85
2024/03/09 01:38:29;;;;;;;0.20;0.20;;;;;;;3.71;80.85;101773.50;4916060;29;20036;-85
2024/03/09 01:40:55;;;;;;;0.20;0.20;;;;;;;3.78;80.83;101761.56;4916027;29;20410;-86
2024/03/09 01:43:21;;;;;;;0.20;0.20;;;;;;;3.80;80.75;101752.16;4915726;29;20028;-86
2024/03/09 01:45:49;;;;;;;0.20;0.20;;;;;;;3.83;80.64;101749.59;4899935;29;20032;-85
2024/03/09 01:48:18;;;;;;;0.20;0.20;;;;;;;3.83;80.85;101758.09;4935105;29;20042;-85
2024/03/09 01:50:44;;;;;;;0.20;0.20;;;;;;;3.83;80.95;101760.66;4919558;29;20031;-85
2024/03/09 01:53:10;;;;;;;0.20;0.20;;;;;;;3.82;80.81;101761.53;4935131;29;20036;-85
2024/03/09 01:55:36;;;;;;;0.20;0.20;;;;;;;3.71;80.68;101740.25;4919526;29;20391;-85
2024/03/09 01:58:03;;;;;;;0.20;0.20;;;;;;;3.65;80.84;101741.13;4919419;29;20533;-85
2024/03/09 02:00:29;;;;;;;0.20;0.20;;;;;;;3.68;80.76;101748.78;4919005;29;20028;-85
2024/03/09 02:02:55;;;;;;;0.20;0.20;;;;;;;3.75;80.68;101741.94;4903515;29;20063;-85
2024/03/09 02:05:21;;;;;;;0.20;0.20;;;;;;;3.70;80.41;101739.38;4935113;29;20111;-85
2024/03/09 02:07:47;;;;;;;0.10;0.10;;;;;;;3.59;80.59;101741.13;4919128;29;20610;-85
2024/03/09 02:10:13;;;;;;;0.20;0.20;;;;;;;3.64;80.88;101749.66;4919168;29;20063;-84
2024/03/09 02:12:40;;;;;;;0.20;0.20;;;;;;;3.59;80.94;101753.91;4919296;29;20035;-85
2024/03/09 02:15:11;;;;;;;0.20;0.20;;;;;;;3.53;80.51;101756.47;4918959;29;20035;-85
2024/03/09 02:17:37;;;;;;;0.20;0.20;;;;;;;3.45;80.50;101748.84;4919954;29;20031;-85
2024/03/09 02:20:03;;;;;;;0.20;0.20;;;;;;;3.45;80.91;101751.41;4903235;29;20028;-85
2024/03/09 02:22:28;;;;;;;0.20;0.20;;;;;;;3.50;81.70;101753.94;4935987;29;20020;-85
2024/03/09 02:24:58;;;;;;;0.20;0.20;;;;;;;3.49;82.03;101753.94;4918923;29;20099;-85
2024/03/09 02:27:25;;;;;;;0.20;0.20;;;;;;;3.51;82.50;101747.97;4904088;29;20113;-85
2024/03/09 02:29:52;;;;;;;0.20;0.20;;;;;;;3.49;81.78;101749.69;4918811;29;20106;-84
2024/03/09 02:32:18;;;;;;;0.20;0.20;;;;;;;3.33;81.77;101727.53;4934377;29;20110;-85
2024/03/09 02:34:43;;;;;;;0.20;0.20;;;;;;;3.41;82.41;101738.59;4934716;29;20114;-85
2024/03/09 02:37:09;;;;;;;0.10;0.10;;;;;;;3.45;82.36;101733.50;4934572;29;20070;-84
2024/03/09 02:39:36;;;;;;;0.13;0.13;;;;;;;3.32;81.77;101708.78;4918738;29;20522;-85
2024/03/09 02:42:04;;;;;;;0.20;0.20;;;;;;;3.44;81.48;101724.13;4935905;29;20178;-85
2024/03/09 02:44:31;;;;;;;0.20;0.20;;;;;;;3.32;80.99;101726.69;4934150;29;20038;-85
2024/03/09 02:46:56;;;;;;;0.15;0.15;;;;;;;3.28;81.24;101734.38;4918305;29;20583;-85
2024/03/09 02:49:22;;;;;;;0.20;0.20;;;;;;;3.24;81.16;101732.66;4935516;29;20140;-85
2024/03/09 02:51:48;;;;;;;0.20;0.20;;;;;;;3.18;81.58;101728.41;4902702;29;20522;-84
2024/03/09 02:54:14;;;;;;;0.20;0.20;;;;;;;3.27;81.24;101727.56;4935430;29;20027;-85
2024/03/09 02:56:40;;;;;;;0.20;0.20;;;;;;;3.36;80.99;101730.09;4918449;29;20016;-85
2024/03/09 02:59:06;;;;;;;0.20;0.20;;;;;;;3.25;81.21;101716.47;4933076;29;20028;-85
2024/03/09 03:01:32;;;;;;;0.20;0.20;;;;;;;3.34;81.60;101730.09;4933927;29;20107;-85
2024/03/09 03:04:01;;;;;;;0.20;0.20;;;;;;;3.17;81.71;101726.72;4918223;29;20099;-85
2024/03/09 03:06:28;;;;;;;0.20;0.20;;;;;;;3.07;81.88;101717.34;4918807;29;20027;-85
2024/03/09 03:08:59;;;;;;;0.20;0.20;;;;;;;3.19;81.92;101724.16;4918173;29;20573;-85
2024/03/09 03:11:25;;;;;;;0.20;0.20;;;;;;;3.14;81.80;101712.19;4934151;29;20516;-84
2024/03/09 03:13:51;;;;;;;0.20;0.20;;;;;;;3.24;81.27;101733.50;4933423;29;20521;-85
2024/03/09 03:16:25;;;;;;;0.20;0.20;;;;;;;3.08;82.03;101736.94;4933880;29;20038;-85
2024/03/09 03:18:54;;;;;;;0.20;0.20;;;;;;;3.09;82.24;101719.03;4918770;29;20181;-85
2024/03/09 03:21:20;;;;;;;0.20;0.20;;;;;;;3.19;81.83;101735.22;4933874;29;20115;-85
2024/03/09 03:23:48;;;;;;;0.20;0.20;;;;;;;3.30;81.50;101742.88;4933656;29;20031;-86
2024/03/09 03:26:15;;;;;;;0.20;0.20;;;;;;;3.12;81.18;101733.53;4917814;29;20482;-85
2024/03/09 03:28:42;;;;;;;0.20;0.20;;;;;;;3.21;80.44;101740.34;4902058;29;20455;-85
2024/03/09 03:31:10;;;;;;;0.20;0.20;;;;;;;3.13;80.21;101746.31;4917962;29;20032;-85
2024/03/09 03:33:39;;;;;;;0.20;0.20;;;;;;;3.05;81.00;101748.03;4918038;29;20520;-85
2024/03/09 03:36:08;;;;;;;0.20;0.20;;;;;;;2.96;80.83;101748.03;4918073;29;20027;-85
2024/03/09 03:38:36;;;;;;;0.20;0.20;;;;;;;3.01;80.88;101748.88;4933355;29;20106;-84
2024/03/09 03:41:07;;;;;;;0.20;0.20;;;;;;;2.88;81.73;101750.56;4948737;29;20458;-85
2024/03/09 03:43:36;;;;;;;0.10;0.10;;;;;;;2.95;81.60;101751.44;4917611;29;20036;-84
2024/03/09 03:46:02;;;;;;;0.20;0.20;;;;;;;3.04;81.62;101743.75;4933252;29;20036;-85
2024/03/09 03:48:29;;;;;;;0.20;0.20;;;;;;;3.13;82.18;101764.19;4933049;29;20062;-85
2024/03/09 03:50:57;;;;;;;0.20;0.20;;;;;;;3.04;82.36;101751.41;4917292;29;20028;-85
2024/03/09 03:53:23;;;;;;;0.20;0.20;;;;;;;3.06;82.67;101749.72;4949006;29;20074;-85
2024/03/09 03:55:49;;;;;;;0.20;0.20;;;;;;;3.07;82.97;101750.59;4932505;29;20055;-85
2024/03/09 03:58:17;;;;;;;0.20;0.20;;;;;;;3.07;83.14;101761.66;4933124;29;20541;-85
2024/03/09 04:00:47;;;;;;;0.20;0.20;;;;;;;3.04;84.05;101759.09;4932868;29;20405;-85
2024/03/09 04:03:16;;;;;;;0.20;0.20;;;;;;;3.08;83.96;101755.69;4933143;29;20031;-85
2024/03/09 04:05:42;;;;;;;0.20;0.20;;;;;;;3.12;84.66;101744.59;4902123;29;20020;-85
2024/03/09 04:08:08;;;;;;;0.20;0.20;;;;;;;3.11;84.77;101737.78;4917163;29;20063;-85
2024/03/09 04:10:33;;;;;;;0.20;0.20;;;;;;;3.23;84.61;101741.19;4932242;29;20510;-85
2024/03/09 04:12:59;;;;;;;0.20;0.20;;;;;;;3.28;85.06;101739.47;4948305;29;20557;-85
2024/03/09 04:15:26;;;;;;;0.20;0.20;;;;;;;3.31;85.09;101745.44;4948461;29;20064;-84
2024/03/09 04:17:52;;;;;;;0.20;0.20;;;;;;;3.04;86.23;101713.06;4933032;29;20031;-85
2024/03/09 04:20:18;;;;;;;0.20;0.20;;;;;;;3.13;87.73;101730.09;4933897;29;20148;-84
2024/03/09 04:22:50;;;;;;;0.20;0.20;;;;;;;3.28;87.57;101744.59;4932643;29;20028;-86
2024/03/09 04:25:16;;;;;;;0.20;0.20;;;;;;;3.21;87.48;101730.97;4917180;29;20031;-85
2024/03/09 04:27:42;;;;;;;0.15;0.15;;;;;;;3.46;86.63;101734.34;4932758;29;20046;-85
2024/03/09 04:30:11;;;;;;;0.20;0.20;;;;;;;3.29;86.00;101720.72;4932755;29;20027;-85
2024/03/09 04:32:38;;;;;;;0.20;0.20;;;;;;;3.33;86.74;101727.53;4917125;29;20046;-85
2024/03/09 04:35:06;;;;;;;0.20;0.20;;;;;;;3.41;86.02;101730.94;4916845;29;20083;-85
2024/03/09 04:37:34;;;;;;;0.20;0.20;;;;;;;3.31;85.72;101721.56;4932480;29;20111;-85
2024/03/09 04:40:00;;;;;;;0.20;0.20;;;;;;;3.12;86.20;101719.03;4916850;29;20063;-85
2024/03/09 04:42:26;;;;;;;0.20;0.20;;;;;;;3.12;86.96;101719.03;4932566;29;20027;-85
2024/03/09 04:44:52;;;;;;;0.20;0.20;;;;;;;3.16;86.30;101719.91;4916415;29;20031;-85
2024/03/09 04:47:22;;;;;;;0.20;0.20;;;;;;;3.11;86.44;101714.78;4932492;29;20127;-84
2024/03/09 04:49:47;;;;;;;0.20;0.20;;;;;;;3.26;86.59;101736.09;4947600;29;20052;-85
2024/03/09 04:52:13;;;;;;;0.20;0.20;;;;;;;3.23;86.21;101730.94;4916423;29;20032;-84
2024/03/09 04:54:45;;;;;;;0.20;0.20;;;;;;;3.11;86.35;101711.38;4931926;29;20406;-85
2024/03/09 04:57:17;;;;;;;0.20;0.20;;;;;;;3.23;86.49;101734.34;4932755;29;20035;-85
2024/03/09 04:59:43;;;;;;;0.20;0.20;;;;;;;3.20;86.97;101748.88;4902256;29;20048;-84
2024/03/09 05:02:09;;;;;;;0.20;0.20;;;;;;;3.14;87.25;101740.31;4916730;29;20413;-85
2024/03/09 05:04:35;;;;;;;0.20;0.20;;;;;;;3.20;87.86;101746.31;4932236;29;20039;-85
2024/03/09 05:07:03;;;;;;;0.20;0.20;;;;;;;3.12;87.80;101731.81;4932200;29;20032;-85
2024/03/09 05:09:29;;;;;;;0.20;0.20;;;;;;;3.24;87.26;101753.13;4916294;29;20055;-85
2024/03/09 05:11:54;;;;;;;0.20;0.20;;;;;;;3.23;87.00;101753.97;4931679;29;20039;-85
2024/03/09 05:14:21;;;;;;;0.20;0.20;;;;;;;3.21;86.64;101743.75;4948052;29;20060;-84
2024/03/09 05:16:47;;;;;;;0.20;0.20;;;;;;;3.19;87.30;101749.72;4916379;29;20107;-84
2024/03/09 05:19:12;;;;;;;0.20;0.20;;;;;;;3.21;87.69;101750.56;4947717;29;20028;-85
2024/03/09 05:21:38;;;;;;;0.20;0.20;;;;;;;3.27;87.09;101755.69;4949273;28;20106;-85
2024/03/09 05:24:05;;;;;;;0.20;0.20;;;;;;;3.34;87.65;101754.81;4935647;29;20032;-85
2024/03/09 05:26:32;;;;;;;0.20;0.20;;;;;;;3.35;87.18;101765.06;4920110;29;20098;-84
2024/03/09 05:29:01;;;;;;;0.20;0.20;;;;;;;3.32;87.39;101769.31;4935818;29;20087;-85
2024/03/09 05:31:27;;;;;;;0.20;0.20;;;;;;;3.40;87.52;101767.59;4935780;29;20067;-84
2024/03/09 05:33:53;;;;;;;0.20;0.20;;;;;;;3.41;87.39;101761.63;4919876;29;20034;-85
2024/03/09 05:36:19;;;;;;;0.20;0.20;;;;;;;3.49;86.38;101757.34;4935425;29;20032;-85
2024/03/09 05:38:48;;;;;;;0.20;0.20;;;;;;;3.26;85.37;101759.09;4919284;29;20525;-85
2024/03/09 05:41:13;;;;;;;0.20;0.20;;;;;;;3.32;86.00;101766.75;4935531;29;20038;-85
2024/03/09 05:43:39;;;;;;;0.20;0.20;;;;;;;3.10;86.38;101748.88;4903880;29;20417;-85
2024/03/09 05:46:07;;;;;;;0.20;0.20;;;;;;;3.03;86.07;101770.16;4935448;29;20099;-84
2024/03/09 05:48:33;;;;;;;0.20;0.20;;;;;;;3.03;87.50;101782.09;4935232;29;20052;-85
2024/03/09 05:50:58;;;;;;;0.20;0.20;;;;;;;2.96;87.29;101781.25;4935034;29;20052;-85
2024/03/09 05:53:26;;;;;;;0.20;0.20;;;;;;;3.03;87.33;101784.66;4919068;29;20484;-85
2024/03/09 05:55:52;;;;;;;0.20;0.20;;;;;;;2.94;87.22;101777.81;4904266;29;20095;-85
2024/03/09 05:58:22;;;;;;;0.20;0.20;;;;;;;3.09;86.92;101795.75;4919365;29;20028;-85
2024/03/09 06:00:48;;;;;;;0.20;0.20;;;;;;;3.12;86.92;101789.78;4935090;29;20074;-85
2024/03/09 06:03:13;;;;;;;0.20;0.20;;;;;;;3.10;87.17;101794.88;4919256;29;20040;-85
2024/03/09 06:05:41;;;;;;;0.20;0.20;;;;;;;2.88;87.57;101786.34;4950773;29;20171;-85
2024/03/09 06:08:07;;;;;;;0.20;0.20;;;;;;;2.94;88.54;101792.31;4950639;29;20042;-84
2024/03/09 06:10:33;;;;;;;0.20;0.20;;;;;;;2.97;88.21;101789.78;4935065;29;20032;-85
2024/03/09 06:12:58;;;;;;;0.20;0.20;;;;;;;2.84;87.65;101763.34;4934814;29;20078;-85
2024/03/09 06:15:24;;;;;;;0.20;0.20;;;;;;;3.07;87.33;101791.50;4951001;29;20372;-85
2024/03/09 06:17:55;;;;;;;0.20;0.20;;;;;;;3.06;87.21;101795.75;4934610;29;20086;-85
2024/03/09 06:20:21;;;;;;;0.20;0.20;;;;;;;3.22;87.57;101790.63;4919267;29;20499;-85
2024/03/09 06:22:47;;;;;;;0.20;0.20;;;;;;;3.17;87.99;101778.72;4934692;29;20032;-85
2024/03/09 06:25:22;;;;;;;0.20;0.20;;;;;;;3.24;86.61;101799.16;4934475;29;20091;-85
2024/03/09 06:27:50;;;;;;;0.20;0.20;;;;;;;3.12;86.55;101794.88;4919989;29;20035;-85
2024/03/09 06:30:16;;;;;;;0.20;0.20;;;;;;;3.00;86.67;101785.50;4934586;29;20506;-85
2024/03/09 06:32:43;;;;;;;0.20;0.20;;;;;;;3.09;86.37;101795.75;4934273;29;20031;-85
2024/03/09 06:35:09;;;;;;;0.20;0.20;;;;;;;3.17;86.32;101794.03;4918495;29;20130;-84
2024/03/09 06:37:35;;;;;;;0.20;0.20;;;;;;;3.12;86.19;101780.41;4934269;29;20110;-85
2024/03/09 06:40:02;;;;;;;0.20;0.20;;;;;;;3.04;86.40;101789.75;4918693;29;20387;-85
2024/03/09 06:42:29;;;;;;;0.20;0.20;;;;;;;3.15;86.49;101789.78;4918718;29;20036;-85
2024/03/09 06:44:55;;;;;;;0.20;0.20;;;;;;;3.18;86.85;101789.78;4934289;29;20071;-84
2024/03/09 06:47:21;;;;;;;0.20;0.20;;;;;;;3.28;87.24;101785.53;4902897;29;20036;-85
2024/03/09 06:49:47;;;;;;;0.20;0.20;;;;;;;3.36;87.71;101794.06;4933671;29;20052;-84
2024/03/09 06:52:12;;;;;;;0.20;0.20;;;;;;;3.38;87.53;101782.09;4950104;29;20035;-84
2024/03/09 06:54:38;;;;;;;0.20;0.20;;;;;;;3.51;86.71;101788.91;4949784;29;20036;-85
2024/03/09 06:57:04;;;;;;;0.20;0.20;;;;;;;3.47;86.53;101797.44;4902604;29;20028;-84
2024/03/09 06:59:29;;;;;;;0.20;0.20;;;;;;;3.52;86.21;101805.94;4918317;29;20418;-85
2024/03/09 07:01:59;;;;;;;0.20;0.20;;;;;;;3.56;86.01;101812.78;4950037;29;20031;-84
2024/03/09 07:04:25;;;;;;;0.20;0.20;;;;;;;3.60;85.90;101806.81;4918463;29;20090;-85
2024/03/09 07:06:56;;;;;;;0.20;0.20;;;;;;;3.58;85.92;101808.50;4934021;29;20023;-85
2024/03/09 07:09:22;;;;;;;0.20;0.20;;;;;;;3.56;85.91;101802.56;4933999;29;20114;-84
2024/03/09 07:11:50;;;;;;;0.20;0.20;;;;;;;3.58;86.19;101800.84;4933796;29;20454;-84
2024/03/09 07:14:17;;;;;;;0.20;0.20;;;;;;;3.70;85.93;101800.81;4949580;29;20118;-84
2024/03/09 07:16:43;;;;;;;0.20;0.20;;;;;;;3.73;86.51;101808.47;4902410;29;20035;-85
2024/03/09 07:19:09;;;;;;;0.20;0.20;;;;;;;3.82;86.95;101810.16;4933438;29;20040;-85
2024/03/09 07:21:35;;;;;;;0.20;0.20;;;;;;;3.94;86.17;101794.81;4933845;29;20038;-84
2024/03/09 07:24:00;;;;;;;0.20;0.20;;;;;;;4.03;85.87;101812.69;4949692;29;20035;-85
2024/03/09 07:26:26;;;;;;;0.20;0.20;;;;;;;4.13;85.88;101820.31;4933629;29;20032;-85
2024/03/09 07:28:55;;;;;;;0.20;0.20;;;;;;;4.19;85.55;101810.91;4933386;29;20413;-84
2024/03/09 07:31:23;;;;;;;0.20;0.20;;;;;;;4.44;84.78;101818.53;4933832;29;20118;-85
2024/03/09 07:33:53;;;;;;;0.20;0.20;;;;;;;4.35;84.42;101813.44;4932850;29;20031;-84
2024/03/09 07:36:21;;;;;;;0.20;0.20;;;;;;;4.40;83.80;101809.13;4918142;29;20040;-84
2024/03/09 07:38:48;;;;;;;0.20;0.20;;;;;;;4.53;83.71;101818.47;4949182;29;20032;-85
2024/03/09 07:41:17;;;;;;;0.20;0.20;;;;;;;4.67;83.50;101820.97;4933253;29;20027;-85
2024/03/09 07:43:43;;;;;;;0.20;0.20;;;;;;;4.75;83.18;101807.25;4917036;29;20091;-85
2024/03/09 07:46:09;;;;;;;0.20;0.20;;;;;;;4.92;83.20;101824.22;4933276;29;20058;-85
2024/03/09 07:48:34;;;;;;;0.20;0.20;;;;;;;4.89;81.83;101814.84;4932723;29;20051;-85
2024/03/09 07:51:00;;;;;;;0.20;0.20;;;;;;;4.98;81.27;101808.78;4932830;29;20079;-85
2024/03/09 07:53:25;;;;;;;0.20;0.20;;;;;;;5.23;82.05;101830.00;4917295;29;20066;-85
2024/03/09 07:55:54;;;;;;;0.20;0.20;;;;;;;5.30;81.07;101829.91;4933089;29;20501;-85
2024/03/09 07:58:20;;;;;;;0.20;0.20;;;;;;;5.32;80.58;101819.66;4932776;29;20027;-85
2024/03/09 08:00:45;;;;;;;0.20;0.20;;;;;;;5.43;80.63;101823.84;4932921;29;20422;-85
2024/03/09 08:03:12;;;;;;;0.20;0.20;;;;;;;5.44;80.97;101820.41;4932844;29;20993;-85
2024/03/09 08:05:38;;;;;;;0.20;0.20;;;;;;;5.58;80.64;101822.00;4948647;29;20031;-85
2024/03/09 08:08:09;;;;;;;0.20;0.20;;;;;;;5.59;79.85;101800.59;4932777;29;20063;-85
2024/03/09 08:10:34;;;;;;;0.20;0.20;;;;;;;5.68;79.67;101805.63;4948178;29;20032;-85
2024/03/09 08:13:00;;;;;;;0.20;0.20;;;;;;;5.75;79.76;101815.84;4916704;29;20561;-84
2024/03/09 08:15:29;;;;;;;0.20;0.20;;;;;;;5.85;79.15;101815.75;4916907;29;20027;-86
2024/03/09 08:17:54;;;;;;;0.20;0.20;;;;;;;5.87;78.61;101825.13;4917322;29;20517;-85
2024/03/09 08:20:21;;;;;;;0.20;0.20;;;;;;;5.83;79.05;101830.31;4916891;29;20028;-85
2024/03/09 08:22:47;;;;;;;0.20;0.20;;;;;;;5.85;78.47;101821.72;4932561;29;20079;-86
2024/03/09 08:25:15;;;;;;;0.20;0.20;;;;;;;6.02;77.90;101819.03;4932702;29;20142;-85
2024/03/09 08:27:42;;;;;;;0.20;0.20;;;;;;;6.14;77.26;101823.16;4932702;29;20027;-85
2024/03/09 08:30:13;;;;;;;0.20;0.20;;;;;;;6.17;76.76;101817.97;4932576;29;20035;-85
2024/03/09 08:32:39;;;;;;;0.20;0.20;;;;;;;6.29;76.53;101822.97;4916672;29;20063;-85
2024/03/09 08:35:09;;;;;;;0.20;0.20;;;;;;;6.26;76.04;101823.84;4916776;29;20028;-86
2024/03/09 08:37:41;;;;;;;0.20;0.20;;;;;;;6.23;77.02;101820.50;4932877;29;20079;-85
2024/03/09 08:40:10;;;;;;;0.20;0.20;;;;;;;6.41;76.43;101822.84;4917332;29;20031;-85
2024/03/09 08:42:36;;;;;;;0.20;0.20;;;;;;;6.40;76.77;101826.28;4932796;29;20446;-85
2024/03/09 08:45:09;;;;;;;0.20;0.20;;;;;;;6.46;76.85;101828.75;4931963;29;20126;-87
2024/03/09 08:47:37;;;;;;;0.20;0.20;;;;;;;6.60;76.75;101813.16;4917675;29;20119;-85
2024/03/09 08:50:04;;;;;;;0.20;0.20;;;;;;;6.77;75.05;101830.91;4932113;29;20510;-86
2024/03/09 08:52:32;;;;;;;0.20;0.20;;;;;;;6.72;75.53;101817.28;4931887;29;20467;-85
2024/03/09 08:55:00;;;;;;;0.20;0.20;;;;;;;6.80;75.71;101813.75;4916584;29;20027;-84
2024/03/09 08:57:27;;;;;;;0.20;0.20;;;;;;;6.88;75.31;101811.91;4915940;29;20070;-86
2024/03/09 08:59:59;;;;;;;0.20;0.20;;;;;;;7.00;73.87;101813.44;4915551;29;20034;-85
2024/03/09 09:02:28;;;;;;;0.20;0.20;;;;;;;7.01;72.93;101822.00;4917030;29;20032;-85
2024/03/09 09:04:54;;;;;;;0.20;0.20;;;;;;;7.06;73.06;101815.06;4916603;29;20079;-86
2024/03/09 09:07:19;;;;;;;0.20;0.20;;;;;;;7.04;70.88;101803.94;4948316;29;20491;-85
2024/03/09 09:09:45;;;;;;;0.20;0.20;;;;;;;7.07;71.43;101809.88;4933288;29;20058;-85
2024/03/09 09:12:10;;;;;;;0.20;0.20;;;;;;;7.15;71.59;101820.91;4931822;29;20032;-86
2024/03/09 09:14:37;;;;;;;0.20;0.20;;;;;;;7.34;70.26;101816.31;4915800;29;20028;-86
2024/03/09 09:17:06;;;;;;;0.20;0.20;;;;;;;7.37;70.10;101817.97;4931834;29;20418;-85
2024/03/09 09:19:32;;;;;;;0.20;0.20;;;;;;;7.37;69.35;101805.09;4932091;29;20148;-85
2024/03/09 09:21:59;;;;;;;0.20;0.20;;;;;;;7.45;69.08;101800.69;4916221;29;20494;-85
2024/03/09 09:24:24;;;;;;;0.20;0.20;;;;;;;7.49;69.78;101794.63;4900482;29;20038;-85
2024/03/09 09:26:50;;;;;;;0.20;0.20;;;;;;;7.52;68.41;101794.56;4931601;29;20414;-85
2024/03/09 09:29:16;;;;;;;0.20;0.20;;;;;;;7.57;68.52;101789.31;4915604;29;20031;-85
2024/03/09 09:31:42;;;;;;;0.20;0.20;;;;;;;7.59;69.40;101798.75;4933152;29;20340;-86
2024/03/09 09:34:10;;;;;;;0.20;0.20;;;;;;;7.68;68.80;101797.72;4931732;29;20184;-85
2024/03/09 09:36:37;;;;;;;0.20;0.20;;;;;;;7.71;67.47;101803.66;4947356;29;20406;-85
2024/03/09 09:39:03;;;;;;;0.20;0.20;;;;;;;7.81;68.29;101799.19;4931623;29;20530;-85
2024/03/09 09:41:28;;;;;;;0.20;0.20;;;;;;;7.99;68.21;101798.00;4900358;29;20024;-86
2024/03/09 09:43:59;;;;;;;0.20;0.20;;;;;;;8.00;67.62;101792.81;4899817;29;20039;-86
2024/03/09 09:46:26;;;;;;;0.20;0.20;;;;;;;8.08;66.00;101799.53;4931612;29;20115;-86
2024/03/09 09:48:52;;;;;;;0.20;0.20;;;;;;;7.98;65.26;101801.44;4915681;29;20122;-86
2024/03/09 09:51:27;;;;;;;0.20;0.20;;;;;;;7.76;66.11;101775.22;4916079;29;20118;-85
2024/03/09 09:53:53;;;;;;;0.20;0.20;;;;;;;7.80;67.59;101776.03;4931649;29;20035;-86
2024/03/09 09:56:22;;;;;;;0.20;0.20;;;;;;;7.88;66.68;101795.63;4947764;29;20027;-85
2024/03/09 09:58:48;;;;;;;0.20;0.20;;;;;;;7.76;66.35;101765.75;4915860;29;20027;-85
2024/03/09 10:01:20;;;;;;;0.20;0.20;;;;;;;7.98;66.25;101796.28;4947256;29;20038;-85
2024/03/09 10:03:46;;;;;;;0.20;0.20;;;;;;;7.92;66.08;101793.81;4900209;29;20058;-85
2024/03/09 10:06:20;;;;;;;0.20;0.20;;;;;;;7.82;66.44;101785.41;4931712;29;20067;-85
2024/03/09 10:08:55;;;;;;;0.20;0.20;;;;;;;7.94;64.71;101799.78;4934443;29;20329;-85
2024/03/09 10:11:20;;;;;;;0.20;0.20;;;;;;;7.91;66.44;101789.56;4935427;29;20036;-86
2024/03/09 10:13:46;;;;;;;0.20;0.20;;;;;;;8.10;65.59;101792.63;4902967;29;20028;-85
2024/03/09 10:16:15;;;;;;;0.20;0.20;;;;;;;8.21;64.71;101791.50;4919145;29;20461;-84
2024/03/09 10:18:44;;;;;;;0.20;0.20;;;;;;;8.32;64.08;101797.28;4935062;29;20028;-86
2024/03/09 10:21:10;;;;;;;0.20;0.20;;;;;;;8.51;63.61;101791.78;4903879;29;20083;-86
2024/03/09 10:23:36;;;;;;;0.20;0.20;;;;;;;8.49;63.97;101784.09;4934572;29;20039;-85
2024/03/09 10:26:06;;;;;;;0.20;0.20;;;;;;;8.58;64.22;101791.63;4934609;29;20031;-86
2024/03/09 10:28:34;;;;;;;0.20;0.20;;;;;;;8.51;63.04;101771.16;4919080;29;20074;-86
2024/03/09 10:31:02;;;;;;;0.20;0.20;;;;;;;8.70;61.93;101798.22;4934285;29;20027;-86
2024/03/09 10:33:32;;;;;;;0.20;0.20;;;;;;;8.58;62.31;101790.78;4934347;29;20062;-85
2024/03/09 10:35:59;;;;;;;0.20;0.20;;;;;;;8.53;62.49;101780.53;4935703;29;20035;-84
2024/03/09 10:38:27;;;;;;;0.20;0.20;;;;;;;8.66;62.33;101781.16;4934546;29;20155;-85
2024/03/09 10:40:53;;;;;;;0.20;0.20;;;;;;;8.79;62.19;101779.97;4918923;29;20074;-85
2024/03/09 10:43:20;;;;;;;0.20;0.20;;;;;;;8.71;62.14;101770.69;4934059;29;20031;-85
2024/03/09 10:45:50;;;;;;;0.20;0.20;;;;;;;8.54;61.70;101742.69;4934465;29;20072;-85
2024/03/09 10:48:15;;;;;;;0.20;0.20;;;;;;;8.68;62.26;101763.88;4934203;29;20035;-85
2024/03/09 10:51:14;;;;;;;0.20;0.20;;;;;;;8.72;62.32;101775.81;4933896;29;20038;-85
2024/03/09 10:53:51;;;;;;;0.20;0.20;;;;;;;8.58;62.72;101773.56;4930642;29;20043;-85
2024/03/09 10:56:22;;;;;;;0.20;0.20;;;;;;;8.60;62.35;101755.47;4935387;29;20031;-85
2024/03/09 10:58:50;;;;;;;0.20;0.20;;;;;;;8.87;61.12;101760.00;4933996;29;20075;-85
2024/03/09 11:01:17;;;;;;;0.20;0.20;;;;;;;8.91;60.42;101756.44;4934141;29;20110;-86
2024/03/09 11:03:49;;;;;;;0.20;0.20;;;;;;;8.94;60.88;101759.84;4933791;29;20106;-86
2024/03/09 11:06:17;;;;;;;0.20;0.20;;;;;;;8.91;61.24;101753.88;4934108;29;20031;-85
2024/03/09 11:08:50;;;;;;;0.20;0.20;;;;;;;9.01;60.90;101748.47;4933782;29;20028;-85
2024/03/09 11:11:19;;;;;;;;;;;;;;;9.10;59.46;101751.69;4950004;29;20031;-85
2024/03/09 11:13:47;;;;;;;0.20;0.20;;;;;;;8.89;61.73;101747.91;4933696;29;19988;-85
2024/03/09 11:16:13;;;;;;;0.20;0.20;;;;;;;8.96;61.14;101733.13;4933850;29;20036;-85
2024/03/09 11:18:45;;;;;;;0.20;0.20;;;;;;;9.04;60.51;101728.59;4933226;29;20035;-86
2024/03/09 11:21:29;;;;;;;0.20;0.20;;;;;;;9.18;60.84;101721.38;4918528;29;20422;-85
2024/03/09 11:24:06;;;;;;;0.20;0.20;;;;;;;8.95;59.70;101709.91;4933794;29;20032;-85
2024/03/09 11:26:52;;;;;;;0.20;0.20;;;;;;;9.12;61.38;101703.44;4933207;29;20387;-85
2024/03/09 11:29:22;;;;;;;0.20;0.20;;;;;;;9.07;61.06;101719.94;4933523;29;20043;-86
2024/03/09 11:31:51;;;;;;;0.20;0.20;;;;;;;9.06;61.35;101718.25;4902116;29;20413;-85
2024/03/09 11:34:23;;;;;;;0.20;0.20;;;;;;;9.10;61.88;101717.28;4902640;29;20142;-85